TimeAKST,TemperatureF,Dew PointF,Humidity,Sea Level PressureIn,VisibilityMPH,Wind Direction,Wind SpeedMPH,Gust SpeedMPH,PrecipitationIn,Events,Conditions,WindDirDegrees,DateUTC
12:53 AM,28.0,26.1,92,29.45,10.0,West,4.6,-,N/A,,Mostly Cloudy,280,2014-01-10 09:53:00
1:53 AM,33.1,27.0,78,29.45,10.0,Calm,Calm,-,N/A,,Mostly Cloudy,0,2014-01-10 10:53:00
2:53 AM,34.0,28.0,79,29.46,10.0,WNW,4.6,-,N/A,,Mostly Cloudy,300,2014-01-10 11:53:00
3:53 AM,32.0,28.0,85,29.46,10.0,Calm,Calm,-,N/A,,Mostly Cloudy,0,2014-01-10 12:53:00
4:53 AM,28.9,27.0,92,29.46,10.0,West,4.6,-,N/A,,Scattered Clouds,280,2014-01-10 13:53:00
5:53 AM,28.9,27.0,92,29.45,10.0,WNW,3.5,-,N/A,,Mostly Cloudy,290,2014-01-10 14:53:00
6:53 AM,28.9,25.0,85,29.44,10.0,West,3.5,-,N/A,,Scattered Clouds,270,2014-01-10 15:53:00
7:53 AM,28.0,24.1,85,29.45,10.0,Calm,Calm,-,N/A,,Clear,0,2014-01-10 16:53:00
8:53 AM,27.0,23.0,85,29.46,10.0,West,4.6,-,N/A,,Partly Cloudy,280,2014-01-10 17:53:00
9:53 AM,26.1,23.0,88,29.47,10.0,WNW,4.6,-,N/A,,Partly Cloudy,290,2014-01-10 18:53:00
10:53 AM,30.0,25.0,82,29.47,10.0,WNW,4.6,-,N/A,,Scattered Clouds,290,2014-01-10 19:53:00
11:53 AM,33.1,27.0,78,29.47,10.0,Calm,Calm,-,N/A,,Scattered Clouds,0,2014-01-10 20:53:00
12:53 PM,34.0,25.0,70,29.46,10.0,Calm,Calm,-,N/A,,Scattered Clouds,0,2014-01-10 21:53:00
1:53 PM,35.1,25.0,67,29.44,10.0,SSW,4.6,-,N/A,,Scattered Clouds,210,2014-01-10 22:53:00
2:53 PM,36.0,25.0,64,29.43,10.0,Calm,Calm,-,N/A,,Scattered Clouds,0,2014-01-10 23:53:00
3:53 PM,35.1,24.1,64,29.42,10.0,Calm,Calm,-,N/A,,Partly Cloudy,0,2014-01-11 00:53:00
4:53 PM,30.9,23.0,72,29.41,10.0,Calm,Calm,-,N/A,,Scattered Clouds,0,2014-01-11 01:53:00
5:53 PM,30.0,21.0,69,29.40,10.0,SW,3.5,-,N/A,,Scattered Clouds,230,2014-01-11 02:53:00
6:53 PM,28.0,21.0,75,29.39,10.0,Calm,Calm,-,N/A,,Scattered Clouds,0,2014-01-11 03:53:00
7:53 PM,25.0,21.0,85,29.39,10.0,West,5.8,-,N/A,,Scattered Clouds,280,2014-01-11 04:53:00
8:53 PM,24.1,19.9,84,29.38,10.0,WSW,5.8,-,N/A,,Scattered Clouds,250,2014-01-11 05:53:00
9:53 PM,23.0,19.0,85,29.37,10.0,West,5.8,-,N/A,,Scattered Clouds,270,2014-01-11 06:53:00
10:53 PM,21.0,18.0,88,29.35,10.0,West,6.9,-,N/A,,Scattered Clouds,270,2014-01-11 07:53:00
11:53 PM,21.0,18.0,88,29.33,10.0,West,5.8,-,N/A,,Scattered Clouds,260,2014-01-11 08:53:00